Time;durP1;ratioP1;P1;durP2;ratioP2;P2;SDS_P1;SDS_P2;PMS_P1;PMS_P2;Temp;Humidity;BMP_temperature;BMP_pressure;BME280_temperature;BME280_humidity;BME280_pressure;Samples;Min_cycle;Max_cycle;Signal;HPM_P1;HPM_P2
2022/09/26 00:00:24;;;;;;;0.10;0.10;;;22.40;58.50;;;;;;4979777;28;20031;-19
2022/09/26 00:02:49;;;;;;;0.20;0.13;;;22.40;58.40;;;;;;4982006;28;20449;-19
2022/09/26 00:05:15;;;;;;;0.20;0.20;;;22.40;58.40;;;;;;4982832;28;20043;-19
2022/09/26 00:07:41;;;;;;;0.20;0.13;;;22.40;58.50;;;;;;4980460;28;20492;-19
2022/09/26 00:10:07;;;;;;;0.10;0.10;;;22.40;58.50;;;;;;4980478;28;20050;-19
2022/09/26 00:12:32;;;;;;;0.43;0.20;;;22.40;58.50;;;;;;4981795;28;20038;-19
2022/09/26 00:14:58;;;;;;;1.17;0.10;;;22.30;58.50;;;;;;4984498;28;20035;-19
2022/09/26 00:17:23;;;;;;;0.20;0.20;;;22.30;58.50;;;;;;4990464;28;20466;-19
2022/09/26 00:19:49;;;;;;;0.20;0.20;;;22.30;58.40;;;;;;4987718;28;20496;-19
2022/09/26 00:22:14;;;;;;;0.20;0.20;;;22.30;58.40;;;;;;4988273;28;20134;-18
2022/09/26 00:24:40;;;;;;;0.20;0.20;;;22.30;58.40;;;;;;4988649;28;20057;-19
2022/09/26 00:27:05;;;;;;;0.15;0.15;;;22.40;58.50;;;;;;4989193;28;20524;-24
2022/09/26 00:29:31;;;;;;;0.10;0.10;;;22.30;58.40;;;;;;4989224;28;20054;-19
2022/09/26 00:31:56;;;;;;;0.15;0.10;;;22.30;58.40;;;;;;4989565;28;20040;-19
2022/09/26 00:34:22;;;;;;;0.10;0.10;;;22.30;58.40;;;;;;4988805;28;20117;-19
2022/09/26 00:36:48;;;;;;;0.10;0.10;;;22.30;58.40;;;;;;4988279;28;20454;-18
2022/09/26 00:39:14;;;;;;;0.10;0.10;;;22.30;58.40;;;;;;4989108;28;20226;-19
2022/09/26 00:41:39;;;;;;;0.10;0.10;;;22.30;58.40;;;;;;4988500;28;20496;-19
2022/09/26 00:44:53;;;;;;;0.10;0.10;;;22.30;58.40;;;;;;4990431;28;20327;-20
2022/09/26 00:47:24;;;;;;;0.20;0.20;;;22.30;58.40;;;;;;4991075;28;20042;-19
2022/09/26 00:49:51;;;;;;;0.10;0.10;;;22.30;58.40;;;;;;4986358;28;20201;-21
2022/09/26 00:52:22;;;;;;;0.20;0.10;;;22.30;58.40;;;;;;4987708;28;20323;-19
2022/09/26 00:54:49;;;;;;;0.10;0.05;;;22.30;59.00;;;;;;4987003;28;20060;-19
2022/09/26 00:57:20;;;;;;;0.28;0.28;;;22.30;58.40;;;;;;4988091;28;20055;-19
2022/09/26 00:59:49;;;;;;;0.20;0.20;;;22.20;58.40;;;;;;4986882;28;20045;-18
2022/09/26 01:02:15;;;;;;;0.00;0.00;;;22.30;58.40;;;;;;4989602;28;20061;-48
2022/09/26 01:04:41;;;;;;;0.93;0.10;;;22.30;58.40;;;;;;4970896;28;20054;-48
2022/09/26 01:07:10;;;;;;;0.30;0.10;;;22.30;59.10;;;;;;4967801;28;20133;-48
2022/09/26 01:09:36;;;;;;;0.17;0.17;;;22.30;58.40;;;;;;4984528;28;20042;-47
2022/09/26 01:12:01;;;;;;;0.05;0.05;;;22.30;58.30;;;;;;5000912;28;20096;-59
2022/09/26 01:14:27;;;;;;;0.22;0.22;;;22.30;58.30;;;;;;4990281;28;20042;-61
2022/09/26 01:16:53;;;;;;;0.10;0.10;;;22.30;58.30;;;;;;4986089;28;20408;-61
2022/09/26 01:19:49;;;;;;;0.25;0.10;;;22.20;58.40;;;;;;4971264;28;20077;-63
2022/09/26 01:22:50;;;;;;;0.20;0.10;;;22.20;58.30;;;;;;4983669;28;20554;-53
2022/09/26 01:25:22;;;;;;;0.20;0.20;;;22.20;58.40;;;;;;4984904;28;20042;-62
2022/09/26 01:28:07;;;;;;;0.35;0.10;;;22.20;58.40;;;;;;4968284;28;20101;-61
2022/09/26 01:30:55;;;;;;;;;;;22.20;58.30;;;;;;4984915;28;20046;-62
2022/09/26 01:33:30;;;;;;;0.10;0.10;;;22.20;58.30;;;;;;4984883;28;19926;-56
2022/09/26 01:36:09;;;;;;;0.90;0.10;;;22.20;58.40;;;;;;4987949;28;20129;-59
2022/09/26 01:38:44;;;;;;;0.10;0.10;;;22.20;58.30;;;;;;4987223;28;20516;-62
2022/09/26 01:41:25;;;;;;;0.20;0.10;;;22.20;58.30;;;;;;4989562;28;20054;-61
2022/09/26 01:44:15;;;;;;;0.20;0.17;;;22.20;58.20;;;;;;5014611;28;20104;-62
2022/09/26 01:46:59;;;;;;;0.10;0.10;;;22.20;58.30;;;;;;4984411;28;20045;-60
2022/09/26 01:49:33;;;;;;;0.63;0.20;;;22.20;58.30;;;;;;4985857;28;20043;-57
2022/09/26 01:52:14;;;;;;;0.28;0.20;;;22.20;59.00;;;;;;4997429;28;20046;-58
2022/09/26 01:54:52;;;;;;;0.10;0.10;;;22.20;58.40;;;;;;4983910;28;20065;-63
2022/09/26 01:57:23;;;;;;;0.10;0.10;;;22.10;58.30;;;;;;4998218;28;20515;-57
2022/09/26 01:59:52;;;;;;;0.17;0.17;;;22.20;59.00;;;;;;4968532;28;20508;-61
2022/09/26 02:02:20;;;;;;;0.00;0.00;;;22.20;58.30;;;;;;4986788;28;20038;-59
2022/09/26 02:04:48;;;;;;;0.65;0.22;;;22.20;58.40;;;;;;4994569;28;20042;-61
2022/09/26 02:08:03;;;;;;;0.10;0.10;;;22.10;58.30;;;;;;4985911;28;20289;-62
2022/09/26 02:10:40;;;;;;;0.10;0.10;;;22.10;58.40;;;;;;4982605;28;20066;-62
2022/09/26 02:13:18;;;;;;;0.22;0.10;;;22.20;58.30;;;;;;4985171;28;20054;-57
2022/09/26 02:15:46;;;;;;;0.13;0.10;;;22.10;58.30;;;;;;4984779;28;20099;-57
2022/09/26 02:18:16;;;;;;;0.08;0.08;;;22.10;58.30;;;;;;4986341;28;20420;-62
2022/09/26 02:20:45;;;;;;;0.10;0.10;;;22.10;58.30;;;;;;4985356;28;20039;-58
2022/09/26 02:23:11;;;;;;;0.10;0.10;;;22.10;58.40;;;;;;5003435;28;20053;-63
2022/09/26 02:25:36;;;;;;;0.10;0.10;;;22.10;58.30;;;;;;4986334;28;20571;-62
2022/09/26 02:28:02;;;;;;;0.10;0.10;;;22.10;58.40;;;;;;4984659;28;20100;-60
2022/09/26 02:30:28;;;;;;;0.10;0.10;;;22.10;58.40;;;;;;4985440;28;20619;-52
2022/09/26 02:32:53;;;;;;;1.65;0.40;;;22.10;58.40;;;;;;4982044;28;20074;-55
2022/09/26 02:38:04;;;;;;;0.20;0.10;;;22.00;58.30;;;;;;4986491;28;20133;-61
2022/09/26 02:40:50;;;;;;;0.10;0.10;;;22.10;58.30;;;;;;4985635;28;20043;-59
2022/09/26 02:43:37;;;;;;;0.10;0.10;;;22.00;58.40;;;;;;4984257;28;20527;-61
2022/09/26 02:46:12;;;;;;;0.00;0.00;;;22.00;58.40;;;;;;5006385;28;20052;-59
2022/09/26 02:49:00;;;;;;;0.10;0.10;;;22.00;58.30;;;;;;4984298;28;20043;-61
2022/09/26 02:52:07;;;;;;;0.20;0.10;;;22.00;58.40;;;;;;4979685;28;20042;-62
2022/09/26 02:54:48;;;;;;;0.10;0.08;;;22.00;58.40;;;;;;4952492;28;20094;-56
2022/09/26 02:57:51;;;;;;;0.25;0.10;;;22.00;58.40;;;;;;4983350;28;20523;-60
2022/09/26 03:00:27;;;;;;;0.10;0.10;;;22.00;58.40;;;;;;5011681;28;20078;-60
2022/09/26 03:03:04;;;;;;;0.20;0.20;;;22.00;58.40;;;;;;4983557;28;20046;-59
2022/09/26 03:05:30;;;;;;;0.10;0.10;;;22.00;58.40;;;;;;5001196;28;20062;-61
2022/09/26 03:08:00;;;;;;;0.15;0.10;;;22.00;58.40;;;;;;5015411;28;20459;-61
2022/09/26 03:10:26;;;;;;;0.30;0.10;;;22.00;59.00;;;;;;4968966;28;20047;-61
2022/09/26 03:12:51;;;;;;;0.10;0.10;;;22.00;58.40;;;;;;5011102;28;20030;-60
2022/09/26 03:15:17;;;;;;;0.20;0.15;;;22.00;58.30;;;;;;4983363;28;20042;-60
2022/09/26 03:17:48;;;;;;;0.10;0.10;;;22.00;58.40;;;;;;4965500;28;20570;-61
2022/09/26 03:20:16;;;;;;;0.10;0.10;;;22.00;58.40;;;;;;4995198;28;20127;-60
2022/09/26 03:22:41;;;;;;;0.00;0.00;;;22.00;58.40;;;;;;4996592;28;20113;-60
2022/09/26 03:25:08;;;;;;;0.40;0.10;;;22.00;58.30;;;;;;4983443;28;21046;-61
2022/09/26 03:27:34;;;;;;;0.00;0.00;;;22.00;58.40;;;;;;4985266;28;20042;-60
2022/09/26 03:30:00;;;;;;;0.03;0.03;;;22.00;58.30;;;;;;4998552;28;20590;-61
2022/09/26 03:32:25;;;;;;;0.10;0.10;;;22.00;58.40;;;;;;4986438;28;20047;-61
2022/09/26 03:34:51;;;;;;;0.08;0.08;;;21.90;58.30;;;;;;4981713;28;20108;-62
2022/09/26 03:37:16;;;;;;;0.10;0.10;;;21.90;58.30;;;;;;4983882;28;20034;-62
2022/09/26 03:39:43;;;;;;;0.10;0.10;;;21.90;59.00;;;;;;4983097;28;20026;-60
2022/09/26 03:42:09;;;;;;;0.10;0.10;;;22.00;58.30;;;;;;4982259;28;20389;-61
2022/09/26 03:44:34;;;;;;;0.20;0.10;;;21.90;58.30;;;;;;4985558;28;20023;-63
2022/09/26 03:47:00;;;;;;;0.10;0.10;;;21.90;58.40;;;;;;4985058;28;20511;-60
2022/09/26 03:49:26;;;;;;;0.10;0.00;;;21.90;58.40;;;;;;4982854;28;20072;-62
2022/09/26 03:51:51;;;;;;;0.00;0.00;;;21.90;58.40;;;;;;4982839;28;20042;-62
2022/09/26 03:54:17;;;;;;;0.10;0.10;;;21.90;58.40;;;;;;4983185;28;20579;-63
2022/09/26 03:56:43;;;;;;;0.03;0.03;;;21.90;58.40;;;;;;4983705;28;20030;-57
2022/09/26 03:59:08;;;;;;;0.10;0.10;;;21.90;58.50;;;;;;4987332;28;20096;-62
2022/09/26 04:01:34;;;;;;;0.10;0.10;;;21.90;59.10;;;;;;4982994;28;20046;-60
2022/09/26 04:04:00;;;;;;;0.03;0.00;;;21.90;58.40;;;;;;4983256;28;20059;-62
2022/09/26 04:06:25;;;;;;;0.10;0.10;;;21.90;58.30;;;;;;4983359;28;20611;-60
2022/09/26 04:08:51;;;;;;;0.08;0.03;;;21.90;58.30;;;;;;4983487;28;20054;-61
2022/09/26 04:11:19;;;;;;;0.10;0.10;;;21.90;58.30;;;;;;4986082;28;20042;-60
2022/09/26 04:13:45;;;;;;;0.10;0.10;;;21.90;58.40;;;;;;4983540;28;20500;-53
2022/09/26 04:16:11;;;;;;;0.00;0.00;;;21.80;58.40;;;;;;4983266;28;20038;-60
2022/09/26 04:18:36;;;;;;;0.05;0.00;;;21.90;58.40;;;;;;4984165;28;20042;-61
2022/09/26 04:21:07;;;;;;;0.10;0.10;;;21.90;58.40;;;;;;4982900;28;20499;-60
2022/09/26 04:23:34;;;;;;;0.00;0.00;;;21.80;58.40;;;;;;4985990;28;20088;-63
2022/09/26 04:26:14;;;;;;;0.00;0.00;;;21.80;58.40;;;;;;4983968;28;20058;-57
2022/09/26 04:28:41;;;;;;;0.20;0.20;;;21.90;58.40;;;;;;4983903;28;20038;-48
2022/09/26 04:31:07;;;;;;;0.10;0.10;;;21.80;58.30;;;;;;4983825;28;20053;-61
2022/09/26 04:33:32;;;;;;;0.10;0.05;;;21.80;58.40;;;;;;4982970;28;20089;-57
2022/09/26 04:36:02;;;;;;;0.17;0.10;;;21.80;58.30;;;;;;4982985;28;20436;-62
2022/09/26 04:38:31;;;;;;;0.08;0.08;;;21.80;58.40;;;;;;4987480;28;20043;-55
2022/09/26 04:41:02;;;;;;;0.52;0.30;;;21.80;58.50;;;;;;4984218;28;20046;-61
2022/09/26 04:43:28;;;;;;;0.10;0.10;;;21.80;58.40;;;;;;4984176;28;20289;-56
2022/09/26 04:45:53;;;;;;;0.00;0.00;;;21.80;58.40;;;;;;4982941;28;20058;-55
2022/09/26 04:48:20;;;;;;;0.13;0.00;;;21.80;58.40;;;;;;4981886;28;20050;-62
2022/09/26 04:50:45;;;;;;;0.10;0.10;;;21.80;58.40;;;;;;4981268;28;20042;-61
2022/09/26 04:53:11;;;;;;;0.17;0.17;;;21.80;58.30;;;;;;4984571;28;20049;-62
2022/09/26 04:55:36;;;;;;;0.10;0.10;;;21.80;58.30;;;;;;4982018;28;20042;-61
2022/09/26 04:58:02;;;;;;;0.00;0.00;;;21.80;58.30;;;;;;4981353;28;20030;-59
2022/09/26 05:00:28;;;;;;;0.10;0.10;;;21.80;58.30;;;;;;4982849;28;20057;-61
2022/09/26 05:02:54;;;;;;;0.00;0.00;;;21.80;58.30;;;;;;4984705;28;20035;-59
2022/09/26 05:05:20;;;;;;;0.00;0.00;;;21.80;58.40;;;;;;4988763;28;20500;-61
2022/09/26 05:07:45;;;;;;;0.00;0.00;;;21.80;58.40;;;;;;4984183;28;20049;-62
2022/09/26 05:10:11;;;;;;;0.05;0.03;;;21.80;58.30;;;;;;4985585;28;20054;-51
2022/09/26 05:12:40;;;;;;;0.32;0.10;;;21.80;58.30;;;;;;4985006;28;20034;-54
2022/09/26 05:15:07;;;;;;;0.00;0.00;;;21.80;58.40;;;;;;4983611;28;20058;-54
2022/09/26 05:17:34;;;;;;;0.20;0.08;;;21.80;58.40;;;;;;4987504;28;20049;-57
2022/09/26 05:20:00;;;;;;;0.00;0.00;;;21.80;58.40;;;;;;4985456;28;20050;-60
2022/09/26 05:22:30;;;;;;;0.30;0.10;;;21.80;58.30;;;;;;4986555;28;20046;-61
2022/09/26 05:27:40;;;;;;;;;;;21.80;58.30;;;;;;4984273;28;20049;-61
2022/09/26 05:30:06;;;;;;;0.00;0.00;;;21.80;58.30;;;;;;4985705;28;19930;-62
2022/09/26 05:32:33;;;;;;;0.10;0.10;;;21.70;58.30;;;;;;4989497;28;20125;-59
2022/09/26 05:34:58;;;;;;;0.00;0.00;;;21.80;58.30;;;;;;4984725;28;20049;-57
2022/09/26 05:37:24;;;;;;;0.00;0.00;;;21.80;58.20;;;;;;4988021;28;20042;-61
2022/09/26 05:42:33;;;;;;;0.00;0.00;;;21.70;58.30;;;;;;4985304;28;20050;-58
2022/09/26 05:45:01;;;;;;;0.17;0.10;;;21.80;58.40;;;;;;4984947;28;20043;-60
2022/09/26 05:47:31;;;;;;;0.00;0.00;;;21.70;58.30;;;;;;4989587;28;20412;-61
2022/09/26 05:49:56;;;;;;;0.05;0.00;;;21.70;58.30;;;;;;4984638;28;20138;-58
2022/09/26 05:52:22;;;;;;;0.43;0.00;;;21.70;58.20;;;;;;4985576;28;20050;-60
2022/09/26 05:54:47;;;;;;;0.10;0.10;;;21.70;58.30;;;;;;4985701;28;20504;-60
2022/09/26 05:57:13;;;;;;;0.10;0.05;;;21.70;58.30;;;;;;4983755;28;20050;-61
2022/09/26 05:59:38;;;;;;;0.00;0.00;;;21.70;58.30;;;;;;4988275;28;20050;-59
2022/09/26 06:02:05;;;;;;;0.00;0.00;;;21.70;58.30;;;;;;4987731;28;20058;-59
2022/09/26 06:04:31;;;;;;;0.10;0.10;;;21.70;58.30;;;;;;4986734;28;20053;-60
2022/09/26 06:06:56;;;;;;;0.20;0.20;;;21.70;58.30;;;;;;4985228;28;20042;-61
2022/09/26 06:09:22;;;;;;;0.10;0.10;;;21.70;58.20;;;;;;4637874;28;10000161;-61
2022/09/26 06:11:47;;;;;;;0.10;0.00;;;21.70;58.20;;;;;;4981751;28;20161;-60
2022/09/26 06:14:13;;;;;;;0.10;0.10;;;21.70;58.40;;;;;;4980542;28;20487;-60
2022/09/26 06:16:39;;;;;;;0.00;0.00;;;21.70;58.40;;;;;;4979767;28;20052;-61
2022/09/26 06:19:04;;;;;;;0.10;0.10;;;21.70;58.40;;;;;;4975997;28;20126;-59
2022/09/26 06:21:30;;;;;;;0.20;0.10;;;21.70;58.50;;;;;;4977584;28;20355;-60
2022/09/26 06:23:55;;;;;;;0.00;0.00;;;21.70;58.70;;;;;;4976466;28;20069;-61
2022/09/26 06:26:23;;;;;;;0.28;0.10;;;21.60;58.70;;;;;;4979280;28;20088;-59
2022/09/26 06:28:56;;;;;;;0.00;0.00;;;21.70;58.80;;;;;;4963288;28;20082;-57
2022/09/26 06:31:22;;;;;;;0.10;0.10;;;21.70;58.80;;;;;;5010071;28;20069;-61
2022/09/26 06:33:52;;;;;;;0.05;0.03;;;21.60;58.80;;;;;;4976012;28;20522;-61
2022/09/26 06:36:17;;;;;;;0.00;0.00;;;21.60;59.00;;;;;;4977933;28;20050;-59
2022/09/26 06:38:43;;;;;;;0.10;0.00;;;21.60;59.00;;;;;;4981574;28;20046;-61
2022/09/26 06:41:08;;;;;;;0.20;0.00;;;21.60;58.90;;;;;;4981735;28;20054;-60
2022/09/26 06:43:34;;;;;;;0.10;0.00;;;21.60;58.80;;;;;;4978510;28;20096;-59
2022/09/26 06:46:00;;;;;;;0.00;0.00;;;21.60;59.00;;;;;;4978220;28;20039;-63
2022/09/26 06:48:26;;;;;;;0.08;0.08;;;21.70;58.90;;;;;;4979368;28;20078;-55
2022/09/26 06:50:52;;;;;;;0.80;0.10;;;21.60;58.80;;;;;;4979952;28;20135;-63
2022/09/26 06:53:17;;;;;;;0.32;0.00;;;21.60;58.80;;;;;;4988531;28;20045;-61
2022/09/26 06:55:43;;;;;;;0.10;0.10;;;21.60;59.00;;;;;;4984462;28;20117;-60
2022/09/26 06:58:08;;;;;;;0.10;0.00;;;21.60;59.10;;;;;;4985220;28;20054;-57
2022/09/26 07:00:34;;;;;;;0.20;0.10;;;21.60;59.20;;;;;;4984535;28;20050;-38
2022/09/26 07:03:00;;;;;;;0.00;0.00;;;21.60;59.80;;;;;;4985084;28;20047;-35
2022/09/26 07:05:25;;;;;;;2.15;0.17;;;21.60;59.80;;;;;;4985870;28;20042;-40
2022/09/26 07:07:52;;;;;;;1.27;0.10;;;21.60;59.20;;;;;;4983320;28;20046;-37
2022/09/26 07:10:18;;;;;;;1.90;0.40;;;21.60;59.30;;;;;;4985809;28;20081;-35
2022/09/26 07:12:47;;;;;;;0.15;0.10;;;21.60;59.10;;;;;;4985199;28;20054;-40
2022/09/26 07:15:15;;;;;;;0.10;0.10;;;21.60;59.10;;;;;;4978167;28;20081;-35
2022/09/26 07:17:41;;;;;;;0.10;0.10;;;21.60;59.10;;;;;;4985865;28;20031;-34
2022/09/26 07:20:11;;;;;;;0.20;0.10;;;21.60;59.10;;;;;;4987328;28;20407;-37
2022/09/26 07:22:36;;;;;;;0.10;0.10;;;21.60;59.00;;;;;;4985389;28;20035;-35
2022/09/26 07:25:02;;;;;;;0.03;0.00;;;21.60;58.90;;;;;;4984582;28;20049;-37
2022/09/26 07:27:28;;;;;;;0.52;0.10;;;21.60;58.80;;;;;;4986583;28;20038;-34
2022/09/26 07:29:55;;;;;;;0.30;0.10;;;21.60;59.00;;;;;;4984107;28;20049;-36
2022/09/26 07:32:20;;;;;;;0.10;0.00;;;21.60;59.00;;;;;;4987164;28;20562;-37
2022/09/26 07:34:46;;;;;;;0.25;0.10;;;21.60;59.00;;;;;;4984259;28;20054;-36
2022/09/26 07:37:13;;;;;;;0.10;0.10;;;21.60;58.90;;;;;;4985339;28;20113;-34
2022/09/26 07:39:38;;;;;;;0.20;0.10;;;21.60;58.80;;;;;;4985659;28;20042;-37
2022/09/26 07:42:04;;;;;;;0.00;0.00;;;21.60;59.20;;;;;;4986308;28;20483;-36
2022/09/26 07:44:30;;;;;;;0.10;0.10;;;21.60;58.80;;;;;;4987976;28;20046;-36
2022/09/26 07:52:26;;;;;;;0.10;0.10;;;21.60;58.90;;;;;;4984099;28;19924;-36
2022/09/26 07:54:52;;;;;;;0.10;0.03;;;21.60;59.50;;;;;;4983621;28;20093;-36
2022/09/26 07:57:18;;;;;;;0.47;0.05;;;21.60;58.70;;;;;;4984818;28;20062;-36
2022/09/26 07:59:44;;;;;;;0.00;0.00;;;21.60;58.80;;;;;;4984817;28;20038;-34
2022/09/26 08:02:24;;;;;;;1.25;0.10;;;21.60;58.60;;;;;;4985306;28;20471;-36
2022/09/26 08:04:49;;;;;;;0.05;0.05;;;21.60;58.60;;;;;;4983807;28;20086;-34
2022/09/26 08:07:15;;;;;;;0.10;0.10;;;21.60;58.60;;;;;;4983250;28;20061;-37
2022/09/26 08:09:41;;;;;;;0.10;0.10;;;21.60;58.60;;;;;;4985422;28;20466;-37
2022/09/26 08:12:07;;;;;;;0.52;0.20;;;21.60;58.60;;;;;;4983284;28;20038;-33
2022/09/26 08:14:32;;;;;;;0.70;0.20;;;21.60;58.50;;;;;;4987583;28;20049;-37
2022/09/26 08:16:58;;;;;;;0.10;0.10;;;21.60;58.60;;;;;;4983690;28;20042;-33
2022/09/26 08:19:24;;;;;;;0.00;0.00;;;21.60;58.60;;;;;;4982318;28;20089;-36
2022/09/26 08:21:50;;;;;;;0.00;0.00;;;21.60;58.50;;;;;;4982658;28;20054;-37
2022/09/26 08:24:15;;;;;;;0.10;0.10;;;21.60;58.50;;;;;;4982269;28;20104;-36
2022/09/26 08:26:41;;;;;;;0.15;0.10;;;21.60;58.40;;;;;;4985696;28;20050;-33
2022/09/26 08:29:10;;;;;;;0.10;0.05;;;21.60;58.50;;;;;;4982645;28;20034;-36
2022/09/26 08:31:37;;;;;;;0.13;0.10;;;21.60;58.60;;;;;;4982539;28;20065;-34
2022/09/26 08:34:03;;;;;;;0.45;0.22;;;21.50;58.30;;;;;;4983725;28;20508;-35
2022/09/26 08:36:29;;;;;;;0.38;0.30;;;21.60;58.40;;;;;;4983864;28;20038;-37
2022/09/26 08:38:56;;;;;;;0.32;0.10;;;21.60;58.40;;;;;;4989672;28;20077;-35
2022/09/26 08:41:59;;;;;;;0.20;0.10;;;21.60;58.50;;;;;;4991551;28;20061;-37
2022/09/26 08:44:51;;;;;;;0.03;0.00;;;21.60;58.40;;;;;;5021010;28;20424;-36
2022/09/26 08:47:56;;;;;;;0.00;0.00;;;21.60;58.40;;;;;;4989523;28;20050;-37
2022/09/26 08:50:49;;;;;;;0.25;0.08;;;21.60;58.40;;;;;;4949423;28;20174;-36
2022/09/26 08:53:26;;;;;;;0.10;0.10;;;21.60;58.50;;;;;;4965150;28;20070;-36
2022/09/26 08:55:52;;;;;;;0.10;0.10;;;21.50;58.40;;;;;;4964091;28;20118;-37
2022/09/26 08:58:18;;;;;;;0.08;0.08;;;21.50;58.40;;;;;;4931811;28;20133;-36
2022/09/26 09:00:43;;;;;;;0.30;0.15;;;21.60;58.40;;;;;;4948297;28;20541;-37
2022/09/26 09:03:09;;;;;;;0.08;0.00;;;21.60;59.00;;;;;;4931513;28;20557;-36
2022/09/26 09:05:39;;;;;;;0.10;0.10;;;21.50;58.40;;;;;;4948953;28;20043;-36
2022/09/26 09:08:20;;;;;;;0.10;0.00;;;21.60;58.40;;;;;;4948874;28;20090;-36
2022/09/26 09:11:36;;;;;;;0.00;0.00;;;21.60;58.40;;;;;;4948122;28;20098;-34
2022/09/26 09:14:25;;;;;;;0.00;0.00;;;21.50;58.40;;;;;;4927325;29;20039;-34
2022/09/26 09:17:00;;;;;;;0.05;0.05;;;21.50;58.40;;;;;;4925256;29;20047;-35
2022/09/26 09:19:28;;;;;;;0.10;0.00;;;21.50;58.30;;;;;;4927150;28;20121;-34
2022/09/26 09:22:25;;;;;;;0.15;0.08;;;21.50;58.50;;;;;;4926536;29;20051;-35
2022/09/26 09:25:02;;;;;;;0.05;0.05;;;21.50;58.40;;;;;;4952249;28;20043;-35
2022/09/26 09:27:42;;;;;;;0.20;0.10;;;21.50;58.40;;;;;;4940926;28;20527;-36
2022/09/26 09:30:40;;;;;;;0.00;0.00;;;21.50;58.40;;;;;;4965332;28;20081;-36
2022/09/26 09:33:21;;;;;;;0.10;0.10;;;21.50;58.40;;;;;;4933558;28;20514;-38
2022/09/26 09:36:19;;;;;;;0.03;0.03;;;21.50;58.50;;;;;;4933366;28;20532;-35
2022/09/26 09:38:47;;;;;;;0.10;0.05;;;21.50;59.10;;;;;;4918670;28;20042;-35
2022/09/26 09:41:21;;;;;;;0.20;0.10;;;21.50;58.40;;;;;;4952176;28;20057;-37
2022/09/26 09:44:03;;;;;;;0.00;0.00;;;21.50;58.40;;;;;;4947823;28;20070;-37
2022/09/26 09:46:33;;;;;;;0.10;0.10;;;21.50;58.40;;;;;;4950085;28;20043;-38
2022/09/26 09:49:08;;;;;;;0.20;0.05;;;21.50;58.50;;;;;;4952052;28;20035;-37
2022/09/26 09:51:42;;;;;;;0.10;0.10;;;21.50;58.40;;;;;;4986842;28;20066;-32
2022/09/26 09:54:14;;;;;;;0.17;0.10;;;21.50;58.40;;;;;;4983698;28;20085;-40
2022/09/26 09:56:54;;;;;;;0.10;0.00;;;21.50;58.40;;;;;;4987339;28;20042;-37
2022/09/26 09:59:52;;;;;;;0.10;0.00;;;21.50;58.50;;;;;;4988246;28;20043;-36
2022/09/26 10:02:40;;;;;;;0.10;0.10;;;21.50;58.50;;;;;;5016414;28;20108;-38
2022/09/26 10:05:29;;;;;;;0.05;0.05;;;21.50;58.50;;;;;;4986784;28;20046;-37
2022/09/26 10:07:56;;;;;;;0.00;0.00;;;21.50;58.60;;;;;;4984923;28;20042;-37
2022/09/26 10:10:34;;;;;;;1.35;0.10;;;21.50;58.70;;;;;;5013863;28;20050;-36
2022/09/26 10:13:00;;;;;;;0.10;0.10;;;21.50;58.60;;;;;;4970398;28;20080;-34
2022/09/26 10:15:26;;;;;;;0.03;0.03;;;21.40;58.90;;;;;;4986113;28;20050;-36
2022/09/26 10:18:00;;;;;;;0.10;0.10;;;21.40;58.90;;;;;;4985196;28;20069;-34
2022/09/26 10:20:36;;;;;;;0.03;0.00;;;21.40;58.80;;;;;;4986298;28;20047;-33
2022/09/26 10:23:09;;;;;;;0.10;0.10;;;21.40;58.70;;;;;;5016958;28;20050;-38
2022/09/26 10:25:35;;;;;;;0.45;0.10;;;21.40;58.70;;;;;;4985221;28;20034;-37
2022/09/26 10:28:04;;;;;;;0.10;0.00;;;21.40;58.80;;;;;;5000421;28;20365;-33
2022/09/26 10:30:32;;;;;;;0.00;0.00;;;21.40;58.80;;;;;;4983850;28;20121;-35
2022/09/26 10:32:59;;;;;;;0.00;0.00;;;21.40;58.80;;;;;;4986159;28;20043;-35
2022/09/26 10:35:41;;;;;;;0.15;0.10;;;21.40;58.80;;;;;;4988036;28;20057;-33
2022/09/26 10:38:21;;;;;;;0.00;0.00;;;21.40;58.80;;;;;;4986054;28;20043;-34
2022/09/26 10:40:57;;;;;;;0.10;0.10;;;21.40;58.90;;;;;;4986393;28;20038;-33
2022/09/26 10:43:36;;;;;;;0.10;0.10;;;21.40;58.90;;;;;;4986466;28;20520;-35
2022/09/26 10:46:13;;;;;;;0.00;0.00;;;21.40;58.90;;;;;;4982417;28;20054;-37
2022/09/26 10:48:50;;;;;;;0.00;0.00;;;21.40;59.00;;;;;;4983970;28;22005;-38
2022/09/26 10:51:22;;;;;;;0.00;0.00;;;21.40;59.00;;;;;;4984866;28;20355;-38
2022/09/26 10:53:51;;;;;;;0.00;0.00;;;21.40;59.00;;;;;;4998859;28;20062;-38
2022/09/26 10:56:24;;;;;;;0.00;0.00;;;21.40;59.00;;;;;;4984837;28;20034;-36
2022/09/26 10:58:53;;;;;;;0.10;0.10;;;21.40;59.00;;;;;;4984793;28;20043;-35
2022/09/26 11:01:21;;;;;;;0.10;0.10;;;21.40;59.00;;;;;;4982763;28;20136;-37
2022/09/26 11:03:46;;;;;;;0.25;0.10;;;21.40;59.10;;;;;;5013855;28;20038;-36
2022/09/26 11:06:31;;;;;;;0.10;0.10;;;21.40;59.00;;;;;;5011816;28;20468;-38
2022/09/26 11:09:01;;;;;;;0.40;0.00;;;21.40;59.00;;;;;;4997108;28;20049;-37
2022/09/26 11:11:26;;;;;;;0.10;0.00;;;21.40;58.90;;;;;;4983866;28;20050;-34
2022/09/26 11:13:57;;;;;;;0.00;0.00;;;21.40;59.00;;;;;;4985424;28;20089;-37
2022/09/26 11:16:23;;;;;;;0.00;0.00;;;21.40;59.00;;;;;;4982899;28;20080;-34
2022/09/26 11:18:56;;;;;;;0.10;0.10;;;21.40;59.00;;;;;;4984636;28;20070;-37
2022/09/26 11:21:53;;;;;;;0.10;0.10;;;21.40;59.40;;;;;;4982877;28;20053;-35
2022/09/26 11:25:02;;;;;;;0.10;0.00;;;21.40;59.10;;;;;;4984830;28;20046;-37
2022/09/26 11:27:42;;;;;;;0.30;0.10;;;21.40;59.80;;;;;;4625494;28;9999897;-40
2022/09/26 11:30:19;;;;;;;0.10;0.10;;;21.40;59.30;;;;;;4980569;28;20689;-39
2022/09/26 11:32:55;;;;;;;0.00;0.00;;;21.40;59.70;;;;;;4995894;28;20042;-37
2022/09/26 11:36:05;;;;;;;0.20;0.10;;;21.40;60.00;;;;;;4975543;28;20442;-38
2022/09/26 11:38:49;;;;;;;0.10;0.00;;;21.40;60.00;;;;;;4981008;28;20114;-38
2022/09/26 11:41:37;;;;;;;0.00;0.00;;;21.40;60.30;;;;;;5012501;28;20043;-40
2022/09/26 11:44:08;;;;;;;0.10;0.10;;;21.40;60.00;;;;;;4979919;28;20507;-37
2022/09/26 11:46:56;;;;;;;0.17;0.10;;;21.40;60.00;;;;;;4977916;28;20129;-37
2022/09/26 11:49:34;;;;;;;0.10;0.10;;;21.40;59.90;;;;;;4978471;28;20527;-37
2022/09/26 11:52:37;;;;;;;0.20;0.08;;;21.40;60.00;;;;;;5007255;28;20034;-36
2022/09/26 11:55:23;;;;;;;0.10;0.10;;;21.40;59.90;;;;;;4977049;28;20100;-37
2022/09/26 11:58:07;;;;;;;0.10;0.10;;;21.40;60.10;;;;;;4985416;28;20496;-34
2022/09/26 12:00:42;;;;;;;;;;;21.40;60.20;;;;;;4965578;28;20079;-39
2022/09/26 12:03:22;;;;;;;;;;;21.40;60.30;;;;;;4981502;28;20534;-35
2022/09/26 12:05:53;;;;;;;0.20;0.20;;;21.50;60.10;;;;;;4984591;28;19916;-37
2022/09/26 12:08:37;;;;;;;0.25;0.10;;;21.40;60.30;;;;;;5015903;28;20439;-36
2022/09/26 12:11:09;;;;;;;0.10;0.03;;;21.40;60.30;;;;;;4990645;28;20054;-36
2022/09/26 12:14:08;;;;;;;0.63;0.35;;;21.40;60.30;;;;;;4991540;28;20527;-37
2022/09/26 12:17:02;;;;;;;0.20;0.10;;;21.40;60.30;;;;;;4982508;28;20478;-36
2022/09/26 12:19:38;;;;;;;0.20;0.10;;;21.40;61.10;;;;;;4991316;28;20073;-37
2022/09/26 12:22:34;;;;;;;0.52;0.20;;;21.40;60.50;;;;;;5019127;28;20108;-43
2022/09/26 12:25:21;;;;;;;0.20;0.20;;;21.40;60.30;;;;;;4990157;28;20042;-35
2022/09/26 12:28:02;;;;;;;0.00;0.00;;;21.40;60.30;;;;;;4990506;28;20096;-33
2022/09/26 12:30:32;;;;;;;0.10;0.10;;;21.40;60.40;;;;;;4988809;28;20042;-37
2022/09/26 12:33:38;;;;;;;0.30;0.17;;;21.40;60.60;;;;;;4989750;28;20136;-37
2022/09/26 12:36:17;;;;;;;0.00;0.00;;;21.40;60.60;;;;;;4985910;28;20034;-37
2022/09/26 12:39:04;;;;;;;0.88;0.15;;;21.40;60.40;;;;;;5018006;28;20041;-37
2022/09/26 12:41:41;;;;;;;0.63;0.20;;;21.40;60.40;;;;;;4993102;28;20042;-38
2022/09/26 12:44:51;;;;;;;0.00;0.00;;;21.40;60.20;;;;;;4989385;28;20416;-30
2022/09/26 12:47:44;;;;;;;2.03;0.10;;;21.40;60.50;;;;;;4966797;28;20564;-37
2022/09/26 12:50:14;;;;;;;0.10;0.00;;;21.40;59.80;;;;;;4950264;28;20121;-35
2022/09/26 12:53:17;;;;;;;0.70;0.00;;;21.50;60.50;;;;;;4949024;28;20051;-36
2022/09/26 12:56:05;;;;;;;0.20;0.15;;;21.50;60.60;;;;;;4950610;28;20046;-37
2022/09/26 12:58:31;;;;;;;0.20;0.10;;;21.50;60.50;;;;;;4941324;28;20082;-36
2022/09/26 13:01:04;;;;;;;0.85;0.30;;;21.50;61.30;;;;;;4951452;28;20035;-18
2022/09/26 13:03:34;;;;;;;0.10;0.00;;;21.50;60.30;;;;;;4949756;28;20059;-18
2022/09/26 13:06:18;;;;;;;0.43;0.08;;;21.50;60.40;;;;;;4951019;28;20729;-19
2022/09/26 13:08:46;;;;;;;0.40;0.15;;;21.40;60.50;;;;;;4950674;28;20106;-18
2022/09/26 13:11:20;;;;;;;0.10;0.10;;;21.40;60.60;;;;;;4951843;28;20039;-18
2022/09/26 13:14:07;;;;;;;0.30;0.17;;;21.50;60.70;;;;;;4949134;28;20047;-19
2022/09/26 13:16:52;;;;;;;2.33;0.10;;;21.40;60.70;;;;;;4935158;28;20070;-18
2022/09/26 13:19:21;;;;;;;0.55;0.10;;;21.40;60.70;;;;;;4948745;28;20122;-18
2022/09/26 13:22:11;;;;;;;0.32;0.20;;;21.40;60.60;;;;;;4978740;28;20499;-18
2022/09/26 13:25:01;;;;;;;0.10;0.10;;;21.50;60.70;;;;;;4987404;28;20129;-19
2022/09/26 13:27:36;;;;;;;0.20;0.10;;;21.50;60.80;;;;;;4986808;28;20034;-20
2022/09/26 13:30:10;;;;;;;0.10;0.00;;;21.50;60.50;;;;;;4987019;28;20057;-18